createdAt,value
2017-06-27T00:00:27.910Z,1005.5
2017-06-27T00:01:08.453Z,1005.47
2017-06-27T00:01:48.981Z,1005.47
2017-06-27T00:02:29.545Z,1005.47
2017-06-27T00:03:10.084Z,1005.49
2017-06-27T00:03:50.623Z,1005.49
2017-06-27T00:04:31.148Z,1005.47
2017-06-27T00:05:11.686Z,1005.48
2017-06-27T00:05:52.287Z,1005.46
2017-06-27T00:06:32.809Z,1005.47
2017-06-27T00:07:13.312Z,1005.47
2017-06-27T00:07:53.839Z,1005.42
2017-06-27T00:08:34.377Z,1005.43
2017-06-27T00:09:14.901Z,1005.39
2017-06-27T00:09:55.438Z,1005.4
2017-06-27T00:10:35.982Z,1005.46
2017-06-27T00:11:16.524Z,1005.41
2017-06-27T00:11:57.061Z,1005.4
2017-06-27T00:12:37.593Z,1005.41
2017-06-27T00:13:18.105Z,1005.41
2017-06-27T00:13:58.637Z,1005.44
2017-06-27T00:14:39.176Z,1005.43
2017-06-27T00:15:19.716Z,1005.44
2017-06-27T00:16:00.246Z,1005.43
2017-06-27T00:16:40.782Z,1005.43
2017-06-27T00:17:21.304Z,1005.44
2017-06-27T00:18:01.865Z,1005.4
2017-06-27T00:18:42.389Z,1005.41
2017-06-27T00:19:22.931Z,1005.43
2017-06-27T00:20:03.482Z,1005.42
2017-06-27T00:20:44.022Z,1005.42
2017-06-27T00:21:24.544Z,1005.42
2017-06-27T00:22:05.080Z,1005.43
2017-06-27T00:22:45.630Z,1005.42
2017-06-27T00:23:26.162Z,1005.44
2017-06-27T00:24:06.721Z,1005.43
2017-06-27T00:24:47.244Z,1005.43
2017-06-27T00:25:27.795Z,1005.44
2017-06-27T00:26:08.366Z,1005.43
2017-06-27T00:26:48.897Z,1005.44
2017-06-27T00:27:29.455Z,1005.38
2017-06-27T00:28:09.997Z,1005.38
2017-06-27T00:28:50.533Z,1005.41
2017-06-27T00:29:31.081Z,1005.42
2017-06-27T00:30:11.607Z,1005.39
2017-06-27T00:30:52.149Z,1005.34
2017-06-27T00:31:32.672Z,1005.37
2017-06-27T00:32:13.263Z,1005.41
2017-06-27T00:32:53.775Z,1005.38
2017-06-27T00:33:34.324Z,1005.39
2017-06-27T00:34:14.844Z,1005.4
2017-06-27T00:34:55.382Z,1005.42
2017-06-27T00:35:35.909Z,1005.38
2017-06-27T00:36:16.451Z,1005.41
2017-06-27T00:36:56.986Z,1005.4
2017-06-27T00:37:37.515Z,1005.39
2017-06-27T00:38:18.047Z,1005.39
2017-06-27T00:38:58.574Z,1005.38
2017-06-27T00:39:39.123Z,1005.38
2017-06-27T00:40:19.669Z,1005.4
2017-06-27T00:41:00.204Z,1005.42
2017-06-27T00:41:40.735Z,1005.41
2017-06-27T00:42:21.252Z,1005.41
2017-06-27T00:43:01.791Z,1005.42
2017-06-27T00:43:42.323Z,1005.39
2017-06-27T00:44:22.861Z,1005.41
2017-06-27T00:45:03.420Z,1005.42
2017-06-27T00:45:43.932Z,1005.45
2017-06-27T00:46:24.594Z,1005.47
2017-06-27T00:47:05.137Z,1005.44
2017-06-27T00:47:45.647Z,1005.48
2017-06-27T00:48:26.176Z,1005.45
2017-06-27T00:49:06.723Z,1005.47
2017-06-27T00:49:47.274Z,1005.43
2017-06-27T00:50:27.807Z,1005.45
2017-06-27T00:51:08.332Z,1005.42
2017-06-27T00:51:48.876Z,1005.4
2017-06-27T00:52:29.413Z,1005.43
2017-06-27T00:53:09.964Z,1005.41
2017-06-27T00:53:50.505Z,1005.42
2017-06-27T00:54:31.073Z,1005.39
2017-06-27T00:55:11.628Z,1005.41
2017-06-27T00:55:52.182Z,1005.39
2017-06-27T00:56:32.707Z,1005.41
2017-06-27T00:57:13.236Z,1005.39
2017-06-27T00:57:53.760Z,1005.38
2017-06-27T00:58:34.344Z,1005.39
2017-06-27T00:59:14.880Z,1005.39
2017-06-27T00:59:55.402Z,1005.4
2017-06-27T01:00:35.971Z,1005.41
2017-06-27T01:01:16.484Z,1005.39
2017-06-27T01:01:57.015Z,1005.39
2017-06-27T01:02:37.560Z,1005.38
2017-06-27T01:03:18.100Z,1005.42
2017-06-27T01:03:58.639Z,1005.42
2017-06-27T01:04:39.156Z,1005.36
2017-06-27T01:05:19.688Z,1005.4
2017-06-27T01:06:00.224Z,1005.39
2017-06-27T01:06:40.766Z,1005.38
2017-06-27T01:07:21.304Z,1005.35
2017-06-27T01:08:01.867Z,1005.37
2017-06-27T01:08:42.410Z,1005.36
2017-06-27T01:09:22.949Z,1005.38
2017-06-27T01:10:03.495Z,1005.35
2017-06-27T01:10:44.010Z,1005.41
2017-06-27T01:11:24.552Z,1005.39
2017-06-27T01:12:05.102Z,1005.38
2017-06-27T01:12:45.653Z,1005.38
2017-06-27T01:13:26.173Z,1005.41
2017-06-27T01:14:06.713Z,1005.38
2017-06-27T01:14:47.256Z,1005.38
2017-06-27T01:15:27.784Z,1005.41
2017-06-27T01:16:08.313Z,1005.4
2017-06-27T01:16:48.857Z,1005.39
2017-06-27T01:17:29.377Z,1005.4
2017-06-27T01:18:09.912Z,1005.41
2017-06-27T01:18:50.442Z,1005.42
2017-06-27T01:19:30.957Z,1005.39
2017-06-27T01:20:11.511Z,1005.38
2017-06-27T01:20:52.039Z,1005.41
2017-06-27T01:21:32.570Z,1005.41
2017-06-27T01:22:13.114Z,1005.39
2017-06-27T01:22:53.690Z,1005.4
2017-06-27T01:23:34.210Z,1005.37
2017-06-27T01:24:14.757Z,1005.37
2017-06-27T01:24:55.286Z,1005.38
2017-06-27T01:25:35.828Z,1005.36
2017-06-27T01:26:16.368Z,1005.34
2017-06-27T01:26:56.913Z,1005.34
2017-06-27T01:27:37.447Z,1005.35
2017-06-27T01:28:17.986Z,1005.35
2017-06-27T01:28:58.517Z,1005.34
2017-06-27T01:29:39.033Z,1005.36
2017-06-27T01:30:19.571Z,1005.41
2017-06-27T01:31:00.110Z,1005.44
2017-06-27T01:31:40.657Z,1005.47
2017-06-27T01:32:21.200Z,1005.49
2017-06-27T01:33:01.744Z,1005.5
2017-06-27T01:33:42.296Z,1005.5
2017-06-27T01:34:22.840Z,1005.52
2017-06-27T01:35:03.384Z,1005.55
2017-06-27T01:35:43.939Z,1005.57
2017-06-27T01:36:24.483Z,1005.6
2017-06-27T01:37:05.020Z,1005.59
2017-06-27T01:37:45.537Z,1005.59
2017-06-27T01:38:26.064Z,1005.59
2017-06-27T01:39:06.618Z,1005.64
2017-06-27T01:39:47.151Z,1005.63
2017-06-27T01:40:27.696Z,1005.66
2017-06-27T01:41:08.237Z,1005.67
2017-06-27T01:41:48.774Z,1005.65
2017-06-27T01:42:29.300Z,1005.65
2017-06-27T01:43:09.846Z,1005.58
2017-06-27T01:43:50.374Z,1005.59
2017-06-27T01:44:30.930Z,1005.54
2017-06-27T01:45:11.448Z,1005.52
2017-06-27T01:45:51.976Z,1005.57
2017-06-27T01:46:32.508Z,1005.5
2017-06-27T01:47:13.046Z,1005.5
2017-06-27T01:47:53.560Z,1005.49
2017-06-27T01:48:34.111Z,1005.47
2017-06-27T01:49:14.655Z,1005.48
2017-06-27T01:49:55.186Z,1005.43
2017-06-27T01:50:35.730Z,1005.44
2017-06-27T01:51:16.265Z,1005.48
2017-06-27T01:51:56.825Z,1005.48
2017-06-27T01:52:37.389Z,1005.46
2017-06-27T01:53:17.932Z,1005.44
2017-06-27T01:53:58.455Z,1005.44
2017-06-27T01:54:38.990Z,1005.49
2017-06-27T01:55:19.533Z,1005.45
2017-06-27T01:56:00.069Z,1005.46
2017-06-27T01:56:40.611Z,1005.46
2017-06-27T01:57:21.145Z,1005.45
2017-06-27T01:58:01.687Z,1005.47
2017-06-27T01:58:42.218Z,1005.47
2017-06-27T01:59:22.796Z,1005.5
2017-06-27T02:00:03.306Z,1005.5
2017-06-27T02:00:43.844Z,1005.49
2017-06-27T02:01:24.377Z,1005.46
2017-06-27T02:02:04.921Z,1005.48
2017-06-27T02:02:45.453Z,1005.45
2017-06-27T02:03:25.997Z,1005.48
2017-06-27T02:04:06.538Z,1005.42
2017-06-27T02:04:47.096Z,1005.4
2017-06-27T02:05:27.645Z,1005.4
2017-06-27T02:06:08.166Z,1005.43
2017-06-27T02:06:48.708Z,1005.38
2017-06-27T02:07:29.263Z,1005.39
2017-06-27T02:08:09.830Z,1005.34
2017-06-27T02:08:50.353Z,1005.35
2017-06-27T02:09:30.881Z,1005.31
2017-06-27T02:10:11.414Z,1005.29
2017-06-27T02:10:51.950Z,1005.29
2017-06-27T02:11:32.505Z,1005.28
2017-06-27T02:12:13.017Z,1005.31
2017-06-27T02:12:53.547Z,1005.29
2017-06-27T02:13:34.115Z,1005.32
2017-06-27T02:14:14.638Z,1005.31
2017-06-27T02:14:55.182Z,1005.33
2017-06-27T02:15:35.720Z,1005.3
2017-06-27T02:16:16.286Z,1005.32
2017-06-27T02:16:56.832Z,1005.33
2017-06-27T02:17:37.379Z,1005.36
2017-06-27T02:18:17.910Z,1005.32
2017-06-27T02:18:58.471Z,1005.32
2017-06-27T02:19:39.010Z,1005.33
2017-06-27T02:20:19.571Z,1005.34
2017-06-27T02:21:00.116Z,1005.33
2017-06-27T02:21:40.646Z,1005.35
2017-06-27T02:22:21.204Z,1005.32
2017-06-27T02:23:01.768Z,1005.29
2017-06-27T02:23:42.316Z,1005.27
2017-06-27T02:24:22.835Z,1005.25
2017-06-27T02:25:03.376Z,1005.27
2017-06-27T02:25:43.929Z,1005.25
2017-06-27T02:26:24.444Z,1005.24
2017-06-27T02:27:04.967Z,1005.21
2017-06-27T02:27:45.545Z,1005.25
2017-06-27T02:28:26.074Z,1005.21
2017-06-27T02:29:06.590Z,1005.23
2017-06-27T02:29:47.129Z,1005.19
2017-06-27T02:30:27.669Z,1005.17
2017-06-27T02:31:08.218Z,1005.2
2017-06-27T02:31:48.745Z,1005.18
2017-06-27T02:32:29.277Z,1005.18
2017-06-27T02:33:09.788Z,1005.19
2017-06-27T02:33:50.336Z,1005.15
2017-06-27T02:34:30.856Z,1005.12
2017-06-27T02:35:11.441Z,1005.1
2017-06-27T02:35:51.989Z,1005.08
2017-06-27T02:36:32.500Z,1005.09
2017-06-27T02:37:13.031Z,1005.12
2017-06-27T02:37:53.576Z,1005.11
2017-06-27T02:38:34.099Z,1005.11
2017-06-27T02:39:14.641Z,1005.1
2017-06-27T02:39:55.193Z,1005.12
2017-06-27T02:40:35.737Z,1005.08
2017-06-27T02:41:16.259Z,1005.09
2017-06-27T02:41:56.792Z,1005.09
2017-06-27T02:42:37.337Z,1005.03
2017-06-27T02:43:17.885Z,1005.08
2017-06-27T02:43:58.429Z,1005.02
2017-06-27T02:44:38.954Z,1004.98
2017-06-27T02:45:19.486Z,1004.98
2017-06-27T02:46:00.033Z,1005
2017-06-27T02:46:40.600Z,1005.04
2017-06-27T02:47:21.124Z,1005.04
2017-06-27T02:48:01.664Z,1005
2017-06-27T02:48:42.197Z,1005.04
2017-06-27T02:49:22.738Z,1005.04
2017-06-27T02:50:03.276Z,1005.01
2017-06-27T02:50:43.811Z,1005.04
2017-06-27T02:51:24.344Z,1005
2017-06-27T02:52:04.886Z,1005
2017-06-27T02:52:45.425Z,1005.05
2017-06-27T02:53:25.964Z,1005.05
2017-06-27T02:54:06.507Z,1005.01
2017-06-27T02:54:47.034Z,1005.01
2017-06-27T02:55:27.596Z,1005.01
2017-06-27T02:56:08.096Z,1005.05
2017-06-27T02:56:48.637Z,1005
2017-06-27T02:57:29.154Z,1004.98
2017-06-27T02:58:09.732Z,1004.99
2017-06-27T02:58:50.282Z,1004.94
2017-06-27T02:59:30.819Z,1004.93
2017-06-27T03:00:11.352Z,1004.9
2017-06-27T03:00:51.908Z,1004.9
2017-06-27T03:01:32.456Z,1004.93
2017-06-27T03:02:12.978Z,1004.94
2017-06-27T03:02:53.511Z,1004.92
2017-06-27T03:03:34.043Z,1004.93
2017-06-27T03:04:14.606Z,1004.92
2017-06-27T03:04:55.164Z,1004.94
2017-06-27T03:05:35.691Z,1004.89
2017-06-27T03:06:16.231Z,1004.89
2017-06-27T03:06:56.799Z,1004.85
2017-06-27T03:07:37.454Z,1004.87
2017-06-27T03:08:17.996Z,1004.85
2017-06-27T03:08:58.536Z,1004.86
2017-06-27T03:09:39.089Z,1004.84
2017-06-27T03:10:19.622Z,1004.88
2017-06-27T03:11:00.213Z,1004.92
2017-06-27T03:11:40.740Z,1004.87
2017-06-27T03:12:21.280Z,1004.87
2017-06-27T03:13:01.814Z,1004.86
2017-06-27T03:13:42.365Z,1004.88
2017-06-27T03:14:22.916Z,1004.82
2017-06-27T03:15:03.470Z,1004.86
2017-06-27T03:15:43.984Z,1004.88
2017-06-27T03:16:24.533Z,1004.87
2017-06-27T03:17:05.091Z,1004.86
2017-06-27T03:17:45.591Z,1004.85
2017-06-27T03:18:26.122Z,1004.84
2017-06-27T03:19:06.671Z,1004.85
2017-06-27T03:19:47.218Z,1004.84
2017-06-27T03:20:27.763Z,1004.81
2017-06-27T03:21:08.287Z,1004.82
2017-06-27T03:21:48.826Z,1004.78
2017-06-27T03:22:29.371Z,1004.83
2017-06-27T03:23:09.948Z,1004.78
2017-06-27T03:23:50.452Z,1004.74
2017-06-27T03:24:30.974Z,1004.77
2017-06-27T03:25:11.509Z,1004.78
2017-06-27T03:25:52.052Z,1004.75
2017-06-27T03:26:32.594Z,1004.75
2017-06-27T03:27:13.138Z,1004.77
2017-06-27T03:27:53.663Z,1004.77
2017-06-27T03:28:34.208Z,1004.78
2017-06-27T03:29:14.773Z,1004.81
2017-06-27T03:29:55.301Z,1004.82
2017-06-27T03:30:35.846Z,1004.81
2017-06-27T03:31:16.387Z,1004.8
2017-06-27T03:31:56.933Z,1004.82
2017-06-27T03:32:37.482Z,1004.77
2017-06-27T03:33:18.026Z,1004.78
2017-06-27T03:33:58.620Z,1004.84
2017-06-27T03:34:39.157Z,1004.83
2017-06-27T03:35:19.746Z,1004.82
2017-06-27T03:36:00.291Z,1004.83
2017-06-27T03:36:40.834Z,1004.86
2017-06-27T03:37:21.362Z,1004.85
2017-06-27T03:38:01.907Z,1004.83
2017-06-27T03:38:42.477Z,1004.84
2017-06-27T03:39:23.019Z,1004.85
2017-06-27T03:40:03.609Z,1004.89
2017-06-27T03:40:44.140Z,1004.86
2017-06-27T03:41:24.690Z,1004.86
2017-06-27T03:42:05.224Z,1004.82
2017-06-27T03:42:45.771Z,1004.84
2017-06-27T03:43:26.308Z,1004.87
2017-06-27T03:44:06.848Z,1004.87
2017-06-27T03:44:47.391Z,1004.82
2017-06-27T03:45:27.935Z,1004.85
2017-06-27T03:46:08.512Z,1004.85
2017-06-27T03:46:49.058Z,1004.88
2017-06-27T03:47:29.593Z,1004.82
2017-06-27T03:48:10.127Z,1004.85
2017-06-27T03:48:50.652Z,1004.85
2017-06-27T03:49:31.198Z,1004.81
2017-06-27T03:50:11.729Z,1004.82
2017-06-27T03:50:52.264Z,1004.82
2017-06-27T03:51:32.804Z,1004.85
2017-06-27T03:52:13.345Z,1004.84
2017-06-27T03:52:53.865Z,1004.85
2017-06-27T03:53:34.391Z,1004.81
2017-06-27T03:54:14.923Z,1004.8
2017-06-27T03:54:55.447Z,1004.83
2017-06-27T03:55:35.988Z,1004.83
2017-06-27T03:56:16.517Z,1004.81
2017-06-27T03:56:57.054Z,1004.83
2017-06-27T03:57:37.597Z,1004.79
2017-06-27T03:58:18.121Z,1004.85
2017-06-27T03:58:58.665Z,1004.85
2017-06-27T03:59:39.193Z,1004.85
2017-06-27T04:00:19.726Z,1004.85
2017-06-27T04:02:33.999Z,1004.82
2017-06-27T04:03:14.540Z,1004.84
2017-06-27T04:03:55.079Z,1004.82
2017-06-27T04:04:35.614Z,1004.86
2017-06-27T04:05:16.159Z,1004.8
2017-06-27T04:05:56.701Z,1004.8
2017-06-27T04:06:37.237Z,1004.8
2017-06-27T04:07:17.786Z,1004.79
2017-06-27T04:07:58.336Z,1004.78
2017-06-27T04:08:38.870Z,1004.78
2017-06-27T04:09:19.396Z,1004.76
2017-06-27T04:09:59.931Z,1004.76
2017-06-27T04:10:40.476Z,1004.75
2017-06-27T04:11:21.012Z,1004.74
2017-06-27T04:12:01.555Z,1004.77
2017-06-27T04:12:42.083Z,1004.74
2017-06-27T04:13:22.621Z,1004.74
2017-06-27T04:14:03.156Z,1004.75
2017-06-27T04:14:43.699Z,1004.71
2017-06-27T04:15:24.236Z,1004.74
2017-06-27T04:16:04.770Z,1004.72
2017-06-27T04:16:45.316Z,1004.7
2017-06-27T04:17:25.859Z,1004.7
2017-06-27T04:18:06.403Z,1004.66
2017-06-27T04:18:46.943Z,1004.7
2017-06-27T04:19:27.464Z,1004.67
2017-06-27T04:20:08.007Z,1004.66
2017-06-27T04:20:48.506Z,1004.63
2017-06-27T04:21:29.033Z,1004.62
2017-06-27T04:22:09.572Z,1004.64
2017-06-27T04:22:50.095Z,1004.58
2017-06-27T04:23:30.631Z,1004.6
2017-06-27T04:24:11.254Z,1004.58
2017-06-27T04:24:51.788Z,1004.59
2017-06-27T04:25:32.294Z,1004.55
2017-06-27T04:26:12.823Z,1004.58
2017-06-27T04:26:53.354Z,1004.52
2017-06-27T04:27:33.897Z,1004.56
2017-06-27T04:28:14.443Z,1004.51
2017-06-27T04:28:54.986Z,1004.49
2017-06-27T04:29:35.534Z,1004.48
2017-06-27T04:30:16.085Z,1004.45
2017-06-27T04:30:56.624Z,1004.46
2017-06-27T04:31:37.170Z,1004.45
2017-06-27T04:32:17.702Z,1004.46
2017-06-27T04:32:58.242Z,1004.44
2017-06-27T04:33:38.835Z,1004.45
2017-06-27T04:34:19.317Z,1004.46
2017-06-27T04:34:59.864Z,1004.45
2017-06-27T04:35:40.406Z,1004.45
2017-06-27T04:36:20.947Z,1004.47
2017-06-27T04:37:01.522Z,1004.42
2017-06-27T04:37:42.520Z,1004.46
2017-06-27T04:38:23.062Z,1004.42
2017-06-27T04:39:03.599Z,1004.4
2017-06-27T04:39:44.159Z,1004.4
2017-06-27T04:40:24.697Z,1004.43
2017-06-27T04:41:05.236Z,1004.39
2017-06-27T04:41:45.789Z,1004.41
2017-06-27T04:42:26.335Z,1004.4
2017-06-27T04:43:06.883Z,1004.44
2017-06-27T04:43:47.415Z,1004.44
2017-06-27T04:44:27.931Z,1004.43
2017-06-27T04:45:08.472Z,1004.44
2017-06-27T04:45:49.016Z,1004.45
2017-06-27T04:46:29.550Z,1004.44
2017-06-27T04:47:10.092Z,1004.44
2017-06-27T04:47:50.642Z,1004.41
2017-06-27T04:48:31.168Z,1004.42
2017-06-27T04:49:11.703Z,1004.42
2017-06-27T04:49:52.214Z,1004.42
2017-06-27T04:50:32.786Z,1004.41
2017-06-27T04:51:13.262Z,1004.4
2017-06-27T04:51:53.811Z,1004.37
2017-06-27T04:52:34.363Z,1004.37
2017-06-27T04:53:14.860Z,1004.38
2017-06-27T04:53:55.399Z,1004.38
2017-06-27T04:54:35.935Z,1004.36
2017-06-27T04:55:16.504Z,1004.37
2017-06-27T04:55:57.046Z,1004.38
2017-06-27T04:56:37.586Z,1004.37
2017-06-27T04:57:18.127Z,1004.37
2017-06-27T04:57:58.658Z,1004.38
2017-06-27T04:58:39.194Z,1004.4
2017-06-27T04:59:19.756Z,1004.39
2017-06-27T05:00:00.287Z,1004.38
2017-06-27T05:00:40.820Z,1004.38
2017-06-27T05:01:21.364Z,1004.37
2017-06-27T05:02:01.941Z,1004.33
2017-06-27T05:02:42.477Z,1004.36
2017-06-27T05:03:23.015Z,1004.38
2017-06-27T05:04:03.555Z,1004.36
2017-06-27T05:04:44.101Z,1004.32
2017-06-27T05:05:24.623Z,1004.34
2017-06-27T05:06:05.198Z,1004.37
2017-06-27T05:06:45.771Z,1004.34
2017-06-27T05:07:26.316Z,1004.36
2017-06-27T05:08:06.838Z,1004.37
2017-06-27T05:08:47.384Z,1004.33
2017-06-27T05:09:27.890Z,1004.29
2017-06-27T05:10:08.450Z,1004.3
2017-06-27T05:10:48.981Z,1004.32
2017-06-27T05:11:29.523Z,1004.27
2017-06-27T05:12:10.068Z,1004.28
2017-06-27T05:12:50.611Z,1004.25
2017-06-27T05:13:31.138Z,1004.27
2017-06-27T05:14:11.691Z,1004.28
2017-06-27T05:14:52.194Z,1004.29
2017-06-27T05:15:32.721Z,1004.3
2017-06-27T05:16:13.275Z,1004.27
2017-06-27T05:16:53.824Z,1004.29
2017-06-27T05:17:34.396Z,1004.28
2017-06-27T05:18:14.948Z,1004.24
2017-06-27T05:18:55.475Z,1004.24
2017-06-27T05:19:37.266Z,1004.28
2017-06-27T05:20:19.508Z,1004.26
2017-06-27T05:21:00.879Z,1004.26
2017-06-27T05:21:42.961Z,1004.24
2017-06-27T05:22:24.991Z,1004.22
2017-06-27T05:23:06.982Z,1004.24
2017-06-27T05:23:49.544Z,1004.22
2017-06-27T05:24:32.554Z,1004.21
2017-06-27T05:25:14.644Z,1004.23
2017-06-27T05:25:57.506Z,1004.24
2017-06-27T05:26:40.016Z,1004.25
2017-06-27T05:27:22.512Z,1004.23
2017-06-27T05:28:05.318Z,1004.24
2017-06-27T05:28:47.933Z,1004.23
2017-06-27T05:29:30.768Z,1004.21
2017-06-27T05:30:13.141Z,1004.22
2017-06-27T05:30:55.992Z,1004.23
2017-06-27T05:31:38.766Z,1004.22
2017-06-27T05:32:25.660Z,1004.25
2017-06-27T05:33:20.532Z,1004.27
2017-06-27T05:34:11.415Z,1004.26
2017-06-27T05:34:51.916Z,1004.26
2017-06-27T05:35:32.444Z,1004.29
2017-06-27T05:36:12.939Z,1004.24
2017-06-27T05:36:53.516Z,1004.27
2017-06-27T05:37:34.044Z,1004.23
2017-06-27T05:38:14.617Z,1004.23
2017-06-27T05:38:55.168Z,1004.24
2017-06-27T05:39:35.717Z,1004.23
2017-06-27T05:40:16.270Z,1004.19
2017-06-27T05:40:56.796Z,1004.22
2017-06-27T05:41:37.325Z,1004.18
2017-06-27T05:42:17.813Z,1004.19
2017-06-27T05:42:58.361Z,1004.18
2017-06-27T05:43:39.477Z,1004.18
2017-06-27T05:44:20.011Z,1004.16
2017-06-27T05:45:00.512Z,1004.15
2017-06-27T05:45:40.988Z,1004.15
2017-06-27T05:46:21.600Z,1004.17
2017-06-27T05:47:02.506Z,1004.16
2017-06-27T05:47:43.146Z,1004.13
2017-06-27T05:48:23.696Z,1004.15
2017-06-27T05:49:04.182Z,1004.14
2017-06-27T05:49:44.700Z,1004.15
2017-06-27T05:50:25.220Z,1004.19
2017-06-27T05:51:05.873Z,1004.16
2017-06-27T05:51:46.361Z,1004.17
2017-06-27T05:52:26.892Z,1004.19
2017-06-27T05:53:07.357Z,1004.19
2017-06-27T05:53:47.899Z,1004.16
2017-06-27T05:54:28.419Z,1004.22
2017-06-27T05:55:08.950Z,1004.19
2017-06-27T05:55:49.434Z,1004.18
2017-06-27T05:56:30.000Z,1004.21
2017-06-27T05:57:10.503Z,1004.22
2017-06-27T05:57:51.118Z,1004.18
2017-06-27T05:58:31.628Z,1004.2
2017-06-27T05:59:12.634Z,1004.17
2017-06-27T05:59:53.192Z,1004.18
2017-06-27T06:00:33.691Z,1004.15
2017-06-27T06:01:14.205Z,1004.1
2017-06-27T06:01:54.719Z,1004.15
2017-06-27T06:02:35.227Z,1004.16
2017-06-27T06:03:15.775Z,1004.12
2017-06-27T06:03:56.300Z,1004.12
2017-06-27T06:04:36.736Z,1004.13
2017-06-27T06:05:17.237Z,1004.12
2017-06-27T06:05:57.828Z,1004.13
2017-06-27T06:06:38.312Z,1004.13
2017-06-27T06:07:18.845Z,1004.14
2017-06-27T06:07:59.334Z,1004.16
2017-06-27T06:08:39.849Z,1004.18
2017-06-27T06:09:20.347Z,1004.17
2017-06-27T06:10:00.853Z,1004.15
2017-06-27T06:10:41.378Z,1004.15
2017-06-27T06:11:21.910Z,1004.19
2017-06-27T06:12:02.397Z,1004.16
2017-06-27T06:12:42.915Z,1004.16
2017-06-27T06:13:24.283Z,1004.15
2017-06-27T06:14:04.878Z,1004.17
2017-06-27T06:14:45.414Z,1004.16
2017-06-27T06:15:25.903Z,1004.16
2017-06-27T06:16:06.415Z,1004.17
2017-06-27T06:16:47.077Z,1004.18
2017-06-27T06:17:27.688Z,1004.14
2017-06-27T06:18:08.210Z,1004.13
2017-06-27T06:18:48.710Z,1004.16
2017-06-27T06:19:29.354Z,1004.13
2017-06-27T06:20:09.974Z,1004.13
2017-06-27T06:20:50.475Z,1004.14
2017-06-27T06:21:31.005Z,1004.16
2017-06-27T06:22:11.973Z,1004.14
2017-06-27T06:22:52.538Z,1004.13
2017-06-27T06:23:33.062Z,1004.08
2017-06-27T06:24:13.555Z,1004.11
2017-06-27T06:24:54.045Z,1004.12
2017-06-27T06:25:34.679Z,1004.11
2017-06-27T06:26:15.224Z,1004.07
2017-06-27T06:26:55.774Z,1004.08
2017-06-27T06:27:36.297Z,1004.07
2017-06-27T06:28:17.636Z,1004.1
2017-06-27T06:28:58.134Z,1004.09
2017-06-27T06:29:38.699Z,1004.05
2017-06-27T06:30:19.211Z,1004.05
2017-06-27T06:30:59.714Z,1004.05
2017-06-27T06:31:40.229Z,1004.03
2017-06-27T06:32:20.727Z,1004.04
2017-06-27T06:33:01.225Z,1004.05
2017-06-27T06:33:41.735Z,1004.06
2017-06-27T06:34:22.220Z,1004.02
2017-06-27T06:35:02.751Z,1004.03
2017-06-27T06:35:43.263Z,1004.05
2017-06-27T06:36:23.760Z,1004.03
2017-06-27T06:37:04.328Z,1004.06
2017-06-27T06:37:44.830Z,1004.07
2017-06-27T06:38:25.330Z,1004.03
2017-06-27T06:39:05.942Z,1004.07
2017-06-27T06:39:46.406Z,1004.06
2017-06-27T06:40:26.927Z,1004.09
2017-06-27T06:41:07.605Z,1004.13
2017-06-27T06:41:48.066Z,1004.12
2017-06-27T06:42:28.646Z,1004.12
2017-06-27T06:43:09.166Z,1004.15
2017-06-27T06:43:49.710Z,1004.15
2017-06-27T06:44:30.167Z,1004.18
2017-06-27T06:45:10.638Z,1004.2
2017-06-27T06:45:51.974Z,1004.21
2017-06-27T06:46:32.578Z,1004.23
2017-06-27T06:47:13.181Z,1004.23
2017-06-27T06:47:53.659Z,1004.23
2017-06-27T06:48:34.222Z,1004.25
2017-06-27T06:49:14.688Z,1004.23
2017-06-27T06:49:55.184Z,1004.23
2017-06-27T06:50:35.709Z,1004.22
2017-06-27T06:51:16.238Z,1004.22
2017-06-27T06:51:56.722Z,1004.19
2017-06-27T06:52:37.295Z,1004.2
2017-06-27T06:53:17.809Z,1004.18
2017-06-27T06:53:58.297Z,1004.17
2017-06-27T06:54:38.888Z,1004.16
2017-06-27T06:55:19.408Z,1004.16
2017-06-27T06:55:59.954Z,1004.16
2017-06-27T06:56:40.478Z,1004.15
2017-06-27T06:57:20.978Z,1004.15
2017-06-27T06:58:01.468Z,1004.13
2017-06-27T06:58:41.978Z,1004.1
2017-06-27T06:59:22.569Z,1004.09
2017-06-27T07:00:03.029Z,1004.1
2017-06-27T07:00:43.542Z,1004.1
2017-06-27T07:01:24.986Z,1004.12
2017-06-27T07:02:05.614Z,1004.09
2017-06-27T07:02:46.089Z,1004.13
2017-06-27T07:03:26.637Z,1004.09
2017-06-27T07:04:07.156Z,1004.12
2017-06-27T07:04:47.632Z,1004.11
2017-06-27T07:05:28.156Z,1004.11
2017-06-27T07:06:08.659Z,1004.12
2017-06-27T07:06:49.220Z,1004.14
2017-06-27T07:07:29.688Z,1004.12
2017-06-27T07:08:10.188Z,1004.12
2017-06-27T07:08:50.702Z,1004.15
2017-06-27T07:09:31.206Z,1004.14
2017-06-27T07:10:11.701Z,1004.14
2017-06-27T07:10:52.263Z,1004.17
2017-06-27T07:11:32.758Z,1004.15
2017-06-27T07:12:13.276Z,1004.12
2017-06-27T07:12:53.769Z,1004.11
2017-06-27T07:13:34.250Z,1004.08
2017-06-27T07:14:14.730Z,1004.08
2017-06-27T07:14:55.220Z,1004.06
2017-06-27T07:15:35.789Z,1004.02
2017-06-27T07:16:16.925Z,1004.01
2017-06-27T07:16:57.435Z,1003.97
2017-06-27T07:17:37.954Z,1003.98
2017-06-27T07:18:18.434Z,1003.98
2017-06-27T07:18:58.969Z,1003.96
2017-06-27T07:19:39.439Z,1003.96
2017-06-27T07:20:19.936Z,1003.93
2017-06-27T07:21:00.564Z,1003.93
2017-06-27T07:21:41.029Z,1003.94
2017-06-27T07:22:21.536Z,1003.95
2017-06-27T07:23:02.058Z,1003.93
2017-06-27T07:23:42.670Z,1003.98
2017-06-27T07:24:23.162Z,1003.95
2017-06-27T07:25:03.642Z,1003.96
2017-06-27T07:25:44.182Z,1003.99
2017-06-27T07:26:24.645Z,1003.97
2017-06-27T07:27:05.199Z,1004.02
2017-06-27T07:27:45.721Z,1003.98
2017-06-27T07:28:26.439Z,1003.99
2017-06-27T07:29:06.943Z,1004.01
2017-06-27T07:29:47.499Z,1003.99
2017-06-27T07:30:27.957Z,1004
2017-06-27T07:31:08.442Z,1004
2017-06-27T07:31:48.936Z,1003.98
2017-06-27T07:32:29.516Z,1003.95
2017-06-27T07:33:10.025Z,1003.98
2017-06-27T07:33:50.605Z,1003.96
2017-06-27T07:34:31.127Z,1003.93
2017-06-27T07:35:11.643Z,1003.92
2017-06-27T07:35:52.178Z,1003.94
2017-06-27T07:36:32.718Z,1003.94
2017-06-27T07:37:13.268Z,1003.95
2017-06-27T07:37:53.813Z,1003.94
2017-06-27T07:38:34.388Z,1003.92
2017-06-27T07:39:14.942Z,1003.92
2017-06-27T07:39:55.459Z,1003.95
2017-06-27T07:40:36.017Z,1003.94
2017-06-27T07:41:16.568Z,1003.95
2017-06-27T07:41:57.110Z,1003.97
2017-06-27T07:42:37.656Z,1003.96
2017-06-27T07:43:18.208Z,1004
2017-06-27T07:43:58.742Z,1004
2017-06-27T07:44:39.251Z,1004.06
2017-06-27T07:45:19.792Z,1004.01
2017-06-27T07:46:00.329Z,1004.02
2017-06-27T07:46:40.902Z,1004.07
2017-06-27T07:47:21.447Z,1004.07
2017-06-27T07:48:01.929Z,1004.07
2017-06-27T07:48:42.418Z,1004.07
2017-06-27T07:49:22.964Z,1004.06
2017-06-27T07:50:03.470Z,1004.06
2017-06-27T07:50:43.995Z,1004.08
2017-06-27T07:51:24.508Z,1004.09
2017-06-27T07:52:05.044Z,1004.05
2017-06-27T07:52:45.511Z,1004.04
2017-06-27T07:53:26.044Z,1004.06
2017-06-27T07:54:06.552Z,1004.05
2017-06-27T07:54:47.032Z,1004.01
2017-06-27T07:55:27.656Z,1004.01
2017-06-27T07:56:08.159Z,1004.02
2017-06-27T07:56:48.657Z,1004.04
2017-06-27T07:57:29.150Z,1004.11
2017-06-27T07:58:09.696Z,1004.08
2017-06-27T07:58:50.197Z,1004.1
2017-06-27T07:59:30.721Z,1004.12
2017-06-27T08:00:11.336Z,1004.13
2017-06-27T08:00:51.807Z,1004.07
2017-06-27T08:01:32.290Z,1004.14
2017-06-27T08:02:12.846Z,1004.15
2017-06-27T08:02:53.389Z,1004.15
2017-06-27T08:03:33.928Z,1004.11
2017-06-27T08:04:14.508Z,1004.13
2017-06-27T08:04:55.028Z,1004.12
2017-06-27T08:05:35.589Z,1004.1
2017-06-27T08:06:16.152Z,1004.1
2017-06-27T08:06:56.682Z,1004.1
2017-06-27T08:07:37.232Z,1004.08
2017-06-27T08:08:17.774Z,1004.09
2017-06-27T08:08:58.369Z,1004.09
2017-06-27T08:09:38.909Z,1004.05
2017-06-27T08:10:19.434Z,1004.04
2017-06-27T08:10:59.996Z,1004.05
2017-06-27T08:11:40.564Z,1004.04
2017-06-27T08:12:21.071Z,1004.01
2017-06-27T08:13:01.688Z,1004.04
2017-06-27T08:13:42.205Z,1004.01
2017-06-27T08:14:22.718Z,1004.06
2017-06-27T08:15:03.180Z,1004.06